Chino Valley, AZ (86323)

9:18 PM MST on December 07, 2016 (GMT -0700)
Road 1 North | | Change Station

Elev 4751 ft 34.75 °N, 112.46 °W | Updated 24 seconds ago

Clear
Clear
28.9 °F
Feels Like 29 °F
N
1.7
Wind Variable Wind from SSW

Today
High -- | Low -- °F
--% Chance of Precip.
Yesterday
High -- | Low -- °F
Precip. -- in
Pressure 30.12 in
Visibility 10.0 miles
Clouds Clear
Windchill 29 °F
Dew Point 27 °F
Humidity 93%
Rainfall 0.00 in
Snow Depth Not available.
7:24 AM 5:18 PM
First Quarter, 59% visible
METAR KPRC 080353Z 19005KT 10SM CLR 01/M02 A3014 RMK AO2 SLP200 T00061017
Pressure 30.12 in
Visibility 10.0 miles
Clouds Clear
Windchill 29 °F
Dew Point 27 °F
Humidity 93%
Rainfall 0.00 in
Snow Depth Not available.
7:24 AM 5:18 PM
First Quarter, 59% visible
METAR KPRC 080353Z 19005KT 10SM CLR 01/M02 A3014 RMK AO2 SLP200 T00061017

10-Day Weather Forecast

Almanac

Astronomy

Dec. 07, 2016 Rise Set
Actual Time
Civil Twilight
Nautical Twilight
Astronomical Twilight
Moon
Length of Visible Light
Length of Day
Tomorrow will be .
, % of the Moon is Illuminated

Today's Extremes

State Highs State Lows

Community

WunderPhotos

Upload Photos

1,956,259 photos uploaded!

WunderBlog® & News

Nearby

Air Quality

  Air Quality AQ Index Pollutant
Not available.

Snow Depth

Station Depth Elevation

Earthquake Activity

City Distance Mag. Time & Date
Minimum magnitude displayed is 2.5.

Coastal Water Temperatures

Place Temperature

Stations

Nearby Weather Stations

Station Location Temp. Windchill Dew Point Humidity Wind Precip. Elev Updated Type
                   

Watches & Warnings

There are currently no watches in effect.